createdAt,value
2022-07-29T00:01:40.292Z,17.43
2022-07-29T00:04:43.595Z,17.41
2022-07-29T00:07:46.875Z,17.37
2022-07-29T00:10:50.070Z,17.28
2022-07-29T00:13:53.252Z,17.22
2022-07-29T00:16:58.212Z,17.23
2022-07-29T00:20:01.304Z,17.18
2022-07-29T00:23:04.435Z,17.15
2022-07-29T00:26:07.548Z,17.17
2022-07-29T00:29:33.652Z,17.18
2022-07-29T00:32:35.441Z,17.17
2022-07-29T00:35:47.361Z,17.08
2022-07-29T00:38:51.176Z,17.02
2022-07-29T00:41:54.762Z,16.99
2022-07-29T00:44:57.828Z,17.01
2022-07-29T00:48:02.725Z,17.03
2022-07-29T00:51:08.540Z,16.90
2022-07-29T00:54:11.556Z,16.86
2022-07-29T00:57:15.044Z,16.79
2022-07-29T01:00:22.608Z,16.83
2022-07-29T01:03:27.090Z,16.81
2022-07-29T01:06:30.293Z,16.76
2022-07-29T01:09:45.856Z,16.77
2022-07-29T01:12:53.755Z,16.75
2022-07-29T01:16:07.384Z,16.74
2022-07-29T01:19:28.277Z,16.61
2022-07-29T01:22:46.562Z,16.59
2022-07-29T01:26:33.752Z,16.53
2022-07-29T01:29:44.130Z,16.55
2022-07-29T01:32:57.005Z,16.50
2022-07-29T01:36:03.651Z,16.44
2022-07-29T01:39:16.710Z,16.41
2022-07-29T01:42:46.045Z,16.39
2022-07-29T01:46:01.303Z,16.39
2022-07-29T01:49:12.542Z,16.32
2022-07-29T01:52:22.808Z,16.26
2022-07-29T01:55:31.052Z,16.31
2022-07-29T01:58:36.061Z,16.31
2022-07-29T02:01:42.158Z,16.32
2022-07-29T02:04:49.604Z,16.34
2022-07-29T02:07:54.181Z,16.31
2022-07-29T02:10:57.906Z,16.25
2022-07-29T02:14:02.991Z,16.31
2022-07-29T02:17:08.142Z,16.19
2022-07-29T02:20:12.697Z,16.23
2022-07-29T02:23:20.665Z,16.22
2022-07-29T02:26:26.438Z,16.15
2022-07-29T02:29:32.371Z,16.14
2022-07-29T02:32:40.260Z,16.14
2022-07-29T02:35:46.272Z,16.07
2022-07-29T02:38:53.159Z,16.13
2022-07-29T02:42:01.282Z,16.10
2022-07-29T02:45:04.711Z,16.10
2022-07-29T02:48:16.913Z,16.07
2022-07-29T02:51:44.036Z,16.02
2022-07-29T02:54:54.086Z,16.09
2022-07-29T02:58:03.450Z,16.01
2022-07-29T03:01:18.057Z,15.97
2022-07-29T03:04:29.479Z,16.10
2022-07-29T03:07:33.875Z,16.11
2022-07-29T03:10:38.713Z,16.07
2022-07-29T03:13:42.822Z,16.03
2022-07-29T03:16:46.598Z,16.04
2022-07-29T03:19:51.442Z,16.02
2022-07-29T03:22:54.505Z,16.09
2022-07-29T03:25:58.608Z,16.00
2022-07-29T03:29:02.078Z,16.01
2022-07-29T03:32:08.881Z,16.02
2022-07-29T03:35:13.897Z,16.07
2022-07-29T03:38:16.979Z,16.09
2022-07-29T03:41:22.635Z,15.99
2022-07-29T03:44:28.249Z,15.92
2022-07-29T03:47:49.961Z,15.98
2022-07-29T03:50:55.106Z,15.97
2022-07-29T03:53:58.320Z,16.01
2022-07-29T03:57:03.376Z,15.98
2022-07-29T04:00:08.456Z,16.05
2022-07-29T04:03:12.316Z,16.06
2022-07-29T04:06:20.288Z,16.09
2022-07-29T04:09:23.280Z,16.19
2022-07-29T04:12:26.333Z,16.17
2022-07-29T04:15:31.467Z,16.16
2022-07-29T04:18:35.393Z,16.23
2022-07-29T04:21:42.041Z,16.23
2022-07-29T04:24:45.149Z,16.22
2022-07-29T04:28:02.649Z,16.21
2022-07-29T04:31:05.841Z,16.25
2022-07-29T04:34:10.008Z,16.31
2022-07-29T04:37:14.335Z,16.27
2022-07-29T04:40:17.710Z,16.30
2022-07-29T04:43:20.759Z,16.29
2022-07-29T04:46:26.432Z,16.35
2022-07-29T04:49:29.824Z,16.42
2022-07-29T04:52:35.571Z,16.45
2022-07-29T04:55:38.887Z,16.49
2022-07-29T04:58:42.244Z,16.57
2022-07-29T05:01:45.411Z,16.62
2022-07-29T05:04:48.599Z,16.64
2022-07-29T05:07:53.080Z,16.68
2022-07-29T05:10:56.439Z,16.72
2022-07-29T05:13:59.547Z,16.65
2022-07-29T05:17:02.581Z,16.69
2022-07-29T05:20:07.304Z,16.77
2022-07-29T05:23:13.670Z,16.78
2022-07-29T05:26:16.915Z,16.80
2022-07-29T05:29:43.282Z,16.89
2022-07-29T05:32:43.350Z,16.92
2022-07-29T05:35:46.612Z,16.94
2022-07-29T05:38:51.815Z,16.98
2022-07-29T05:41:54.786Z,17.04
2022-07-29T05:44:58.051Z,16.97
2022-07-29T05:48:01.304Z,17.02
2022-07-29T05:51:05.036Z,17.13
2022-07-29T05:54:09.780Z,17.21
2022-07-29T05:57:18.708Z,17.27
2022-07-29T06:00:21.707Z,17.34
2022-07-29T06:03:24.752Z,17.35
2022-07-29T06:06:27.847Z,17.51
2022-07-29T06:09:36.026Z,17.67
2022-07-29T06:12:39.531Z,17.80
2022-07-29T06:15:42.678Z,17.97
2022-07-29T06:18:45.744Z,18.09
2022-07-29T06:21:49.287Z,17.99
2022-07-29T06:24:53.922Z,18.20
2022-07-29T06:27:57.006Z,18.42
2022-07-29T06:31:00.226Z,18.61
2022-07-29T06:34:03.538Z,18.58
2022-07-29T06:37:09.263Z,18.61
2022-07-29T06:40:38.188Z,18.76
2022-07-29T06:43:50.604Z,18.82
2022-07-29T06:46:55.969Z,18.86
2022-07-29T06:49:59.510Z,18.97
2022-07-29T06:53:02.529Z,19.05
2022-07-29T06:56:09.731Z,19.10
2022-07-29T06:59:14.554Z,19.10
2022-07-29T07:02:17.587Z,19.10
2022-07-29T07:05:20.613Z,19.17
2022-07-29T07:08:24.700Z,19.19
2022-07-29T07:11:29.479Z,19.14
2022-07-29T07:14:32.899Z,19.28
2022-07-29T07:17:35.868Z,19.56
2022-07-29T07:20:39.697Z,19.80
2022-07-29T07:23:42.731Z,19.98
2022-07-29T07:26:47.414Z,20.21
2022-07-29T07:29:50.631Z,20.34
2022-07-29T07:32:53.811Z,20.48
2022-07-29T07:35:56.790Z,20.57
2022-07-29T07:39:00.010Z,20.63
2022-07-29T07:42:04.772Z,20.64
2022-07-29T07:45:16.245Z,20.88
2022-07-29T07:48:19.681Z,21.23
2022-07-29T07:51:22.644Z,21.50
2022-07-29T07:54:25.912Z,21.67
2022-07-29T07:57:30.205Z,21.84
2022-07-29T08:00:33.623Z,22.17
2022-07-29T08:03:37.090Z,22.39
2022-07-29T08:06:40.505Z,22.73
2022-07-29T08:09:43.675Z,22.96
2022-07-29T08:12:48.124Z,22.81
2022-07-29T08:15:58.616Z,22.84
2022-07-29T08:19:02.043Z,22.84
2022-07-29T08:22:05.365Z,23.09
2022-07-29T08:25:09.225Z,23.43
2022-07-29T08:28:13.580Z,23.32
2022-07-29T08:31:17.769Z,23.41
2022-07-29T08:34:25.705Z,23.68
2022-07-29T08:37:31.116Z,23.84
2022-07-29T08:40:34.196Z,23.91
2022-07-29T08:43:39.160Z,23.85
2022-07-29T08:46:42.199Z,23.75
2022-07-29T08:49:46.253Z,23.86
2022-07-29T08:52:51.291Z,23.91
2022-07-29T08:55:55.366Z,23.89
2022-07-29T08:59:00.834Z,23.91
2022-07-29T09:02:19.334Z,23.84
2022-07-29T09:05:23.128Z,23.73
2022-07-29T09:08:27.059Z,23.48
2022-07-29T09:11:30.223Z,23.69
2022-07-29T09:14:34.633Z,23.85
2022-07-29T09:17:45.605Z,24.14
2022-07-29T09:21:12.154Z,24.51
2022-07-29T09:24:16.790Z,24.86
2022-07-29T09:27:23.980Z,25.26
2022-07-29T09:30:31.886Z,25.07
2022-07-29T09:33:36.754Z,25.04
2022-07-29T09:36:44.953Z,25.27
2022-07-29T09:39:48.132Z,24.94
2022-07-29T09:42:53.845Z,24.87
2022-07-29T09:45:58.576Z,24.88
2022-07-29T09:49:11.676Z,24.76
2022-07-29T09:52:14.728Z,24.69
2022-07-29T09:55:19.946Z,24.79
2022-07-29T09:58:24.378Z,24.79
2022-07-29T10:01:31.362Z,24.87
2022-07-29T10:04:41.865Z,24.91
2022-07-29T10:07:51.768Z,25.38
2022-07-29T10:11:12.758Z,25.97
2022-07-29T10:14:17.277Z,26.30
2022-07-29T10:17:22.792Z,26.37
2022-07-29T10:20:28.912Z,26.68
2022-07-29T10:23:45.990Z,26.98
2022-07-29T10:26:50.292Z,26.62
2022-07-29T10:29:53.422Z,26.36
2022-07-29T10:33:16.910Z,26.53
2022-07-29T10:36:34.967Z,26.41
2022-07-29T10:39:50.459Z,26.26
2022-07-29T10:42:55.878Z,26.46
2022-07-29T10:46:02.328Z,26.64
2022-07-29T10:49:16.370Z,26.67
2022-07-29T10:52:20.712Z,26.88
2022-07-29T10:55:37.733Z,27.26
2022-07-29T10:58:41.101Z,27.57
2022-07-29T11:01:49.383Z,27.71
2022-07-29T11:05:04.461Z,27.59
2022-07-29T11:08:25.967Z,27.72
2022-07-29T11:11:36.612Z,27.23
2022-07-29T11:15:01.464Z,27.34
2022-07-29T11:18:14.801Z,27.06
2022-07-29T11:21:55.135Z,26.77
2022-07-29T11:25:16.965Z,26.51
2022-07-29T11:28:25.351Z,26.45
2022-07-29T11:31:39.454Z,26.57
2022-07-29T11:34:43.119Z,27.07
2022-07-29T11:37:52.149Z,27.51
2022-07-29T11:41:25.517Z,28.05
2022-07-29T11:44:56.927Z,28.22
2022-07-29T11:48:31.449Z,28.43
2022-07-29T11:51:32.763Z,28.68
2022-07-29T11:55:00.569Z,28.45
2022-07-29T11:58:04.571Z,28.80
2022-07-29T12:01:07.944Z,28.99
2022-07-29T12:04:11.902Z,29.35
2022-07-29T12:07:17.076Z,29.22
2022-07-29T12:10:30.029Z,29.57
2022-07-29T12:13:41.369Z,29.08
2022-07-29T12:16:44.413Z,29.31
2022-07-29T12:19:47.438Z,29.97
2022-07-29T12:22:55.601Z,30.26
2022-07-29T12:26:01.027Z,30.56
2022-07-29T12:29:11.299Z,29.49
2022-07-29T12:32:19.757Z,29.62
2022-07-29T12:35:23.755Z,29.66
2022-07-29T12:38:27.989Z,29.51
2022-07-29T12:41:33.353Z,29.66
2022-07-29T12:44:49.974Z,30.17
2022-07-29T12:47:54.116Z,30.47
2022-07-29T12:50:59.413Z,30.91
2022-07-29T12:54:09.002Z,30.60
2022-07-29T12:57:19.984Z,30.41
2022-07-29T13:00:26.128Z,30.47
2022-07-29T13:03:29.492Z,30.09
2022-07-29T13:06:41.884Z,29.98
2022-07-29T13:09:47.417Z,30.62
2022-07-29T13:13:11.797Z,30.44
2022-07-29T13:16:15.506Z,31.09
2022-07-29T13:19:18.619Z,31.20
2022-07-29T13:22:23.630Z,30.54
2022-07-29T13:25:29.847Z,30.28
2022-07-29T13:28:35.148Z,30.12
2022-07-29T13:31:38.343Z,29.70
2022-07-29T13:34:41.899Z,29.48
2022-07-29T13:37:45.369Z,29.40
2022-07-29T13:40:48.516Z,30.05
2022-07-29T13:43:52.859Z,30.66
2022-07-29T13:46:55.830Z,30.83
2022-07-29T13:49:58.888Z,31.37
2022-07-29T13:53:01.987Z,31.56
2022-07-29T13:56:07.062Z,31.72
2022-07-29T13:59:11.610Z,31.59
2022-07-29T14:02:15.714Z,31.93
2022-07-29T14:05:18.827Z,31.57
2022-07-29T14:08:21.958Z,32.13
2022-07-29T14:11:27.082Z,31.65
2022-07-29T14:14:33.253Z,31.47
2022-07-29T14:17:36.392Z,31.99
2022-07-29T14:20:39.399Z,32.02
2022-07-29T14:23:43.185Z,32.13
2022-07-29T14:26:47.477Z,31.79
2022-07-29T14:29:51.996Z,31.33
2022-07-29T14:32:55.125Z,32.13
2022-07-29T14:36:00.939Z,32.52
2022-07-29T14:39:04.955Z,32.25
2022-07-29T14:42:08.906Z,31.64
2022-07-29T14:45:13.798Z,32.32
2022-07-29T14:48:16.792Z,32.30
2022-07-29T14:51:19.851Z,32.39
2022-07-29T14:54:22.950Z,32.16
2022-07-29T14:57:26.238Z,32.59
2022-07-29T15:00:33.182Z,32.51
2022-07-29T15:03:36.305Z,32.50
2022-07-29T15:06:39.811Z,32.30
2022-07-29T15:09:49.550Z,32.58
2022-07-29T15:12:53.153Z,32.13
2022-07-29T15:16:00.169Z,32.19
2022-07-29T15:19:03.670Z,32.32
2022-07-29T15:22:07.043Z,31.73
2022-07-29T15:25:10.854Z,31.34
2022-07-29T15:28:14.900Z,31.11
2022-07-29T15:31:19.789Z,30.66
2022-07-29T15:34:24.130Z,30.88
2022-07-29T15:37:29.205Z,30.58
2022-07-29T15:40:52.187Z,30.99
2022-07-29T15:43:55.677Z,31.66
2022-07-29T15:47:07.115Z,31.77
2022-07-29T15:50:15.718Z,32.02
2022-07-29T15:53:18.748Z,31.64
2022-07-29T15:56:22.119Z,31.86
2022-07-29T15:59:25.327Z,31.93
2022-07-29T16:02:29.743Z,31.73
2022-07-29T16:05:33.279Z,31.44
2022-07-29T16:08:36.591Z,31.40
2022-07-29T16:11:39.899Z,30.80
2022-07-29T16:14:43.957Z,30.71
2022-07-29T16:17:50.315Z,30.65
2022-07-29T16:20:53.430Z,30.40
2022-07-29T16:23:56.543Z,30.48
2022-07-29T16:27:00.151Z,30.00
2022-07-29T16:30:03.568Z,29.70
2022-07-29T16:33:08.466Z,29.45
2022-07-29T16:36:13.245Z,29.42
2022-07-29T16:39:18.190Z,28.95
2022-07-29T16:42:37.093Z,28.74
2022-07-29T16:45:46.070Z,28.78
2022-07-29T16:48:51.063Z,28.83
2022-07-29T16:51:54.877Z,28.87
2022-07-29T16:54:57.937Z,28.62
2022-07-29T16:58:01.279Z,28.67
2022-07-29T17:01:04.637Z,28.64
2022-07-29T17:04:09.847Z,28.66
2022-07-29T17:07:13.279Z,28.45
2022-07-29T17:10:16.433Z,28.28
2022-07-29T17:13:19.580Z,28.24
2022-07-29T17:16:24.729Z,28.38
2022-07-29T17:19:30.469Z,28.46
2022-07-29T17:22:33.780Z,28.31
2022-07-29T17:25:37.189Z,28.17
2022-07-29T17:28:40.870Z,28.10
2022-07-29T17:31:45.247Z,27.76
2022-07-29T17:34:49.723Z,27.67
2022-07-29T17:37:53.130Z,27.61
2022-07-29T17:40:56.443Z,27.53
2022-07-29T17:43:59.777Z,27.53
2022-07-29T17:47:03.148Z,27.41
2022-07-29T17:50:08.513Z,27.41
2022-07-29T17:53:15.605Z,27.21
2022-07-29T17:56:19.655Z,27.11
2022-07-29T17:59:22.687Z,27.09
2022-07-29T18:02:26.560Z,27.01
2022-07-29T18:05:32.857Z,26.93
2022-07-29T18:08:36.190Z,26.94
2022-07-29T18:11:39.490Z,26.84
2022-07-29T18:14:48.197Z,26.76
2022-07-29T18:17:57.371Z,26.73
2022-07-29T18:21:02.489Z,26.68
2022-07-29T18:24:06.061Z,26.55
2022-07-29T18:27:09.337Z,26.41
2022-07-29T18:30:14.907Z,26.38
2022-07-29T18:33:21.629Z,26.31
2022-07-29T18:36:26.919Z,26.30
2022-07-29T18:39:30.052Z,26.13
2022-07-29T18:42:33.959Z,26.05
2022-07-29T18:45:37.242Z,26.00
2022-07-29T18:48:42.794Z,25.94
2022-07-29T18:51:47.257Z,25.82
2022-07-29T18:54:50.313Z,25.75
2022-07-29T18:57:57.445Z,25.70
2022-07-29T19:01:01.869Z,25.56
2022-07-29T19:04:05.734Z,25.48
2022-07-29T19:07:10.150Z,25.45
2022-07-29T19:10:13.631Z,25.42
2022-07-29T19:13:17.058Z,25.25
2022-07-29T19:16:20.267Z,25.22
2022-07-29T19:19:23.434Z,25.11
2022-07-29T19:22:27.835Z,25.05
2022-07-29T19:25:31.060Z,25.01
2022-07-29T19:28:38.950Z,24.90
2022-07-29T19:31:42.565Z,24.84
2022-07-29T19:35:05.786Z,24.81
2022-07-29T19:38:10.248Z,24.75
2022-07-29T19:41:15.742Z,24.70
2022-07-29T19:44:19.251Z,24.66
2022-07-29T19:47:22.733Z,24.49
2022-07-29T19:50:26.695Z,24.53
2022-07-29T19:53:31.049Z,24.40
2022-07-29T19:56:34.580Z,24.42
2022-07-29T19:59:41.959Z,24.41
2022-07-29T20:02:48.136Z,24.31
2022-07-29T20:05:52.808Z,24.21
2022-07-29T20:08:58.913Z,24.21
2022-07-29T20:12:02.269Z,24.10
2022-07-29T20:15:08.491Z,24.03
2022-07-29T20:18:11.720Z,23.87
2022-07-29T20:21:14.841Z,23.75
2022-07-29T20:24:19.274Z,23.72
2022-07-29T20:27:22.606Z,23.66
2022-07-29T20:30:26.439Z,23.52
2022-07-29T20:33:30.815Z,23.48
2022-07-29T20:36:33.983Z,23.34
2022-07-29T20:39:39.708Z,23.34
2022-07-29T20:42:42.889Z,23.32
2022-07-29T20:45:45.892Z,23.27
2022-07-29T20:48:49.027Z,23.17
2022-07-29T20:51:52.598Z,23.10
2022-07-29T20:54:57.538Z,23.15
2022-07-29T20:58:00.591Z,23.08
2022-07-29T21:01:03.811Z,23.01
2022-07-29T21:04:07.177Z,23.01
2022-07-29T21:07:10.588Z,22.94
2022-07-29T21:10:15.342Z,22.89
2022-07-29T21:13:20.445Z,22.87
2022-07-29T21:16:25.734Z,22.86
2022-07-29T21:19:29.209Z,22.82
2022-07-29T21:22:32.330Z,22.78
2022-07-29T21:25:36.771Z,22.77
2022-07-29T21:28:40.916Z,22.64
2022-07-29T21:31:44.079Z,22.60
2022-07-29T21:34:47.126Z,22.57
2022-07-29T21:37:50.366Z,22.56
2022-07-29T21:40:55.180Z,22.49
2022-07-29T21:43:59.632Z,22.48
2022-07-29T21:47:05.724Z,22.48
2022-07-29T21:50:09.636Z,22.48
2022-07-29T21:53:15.065Z,22.37
2022-07-29T21:56:20.401Z,22.33
2022-07-29T21:59:25.627Z,22.32
2022-07-29T22:02:28.687Z,22.33
2022-07-29T22:05:32.869Z,22.28
2022-07-29T22:08:36.012Z,22.17
2022-07-29T22:11:41.936Z,22.14
2022-07-29T22:14:44.939Z,22.15
2022-07-29T22:17:48.861Z,22.14
2022-07-29T22:20:52.027Z,22.09
2022-07-29T22:23:55.022Z,22.07
2022-07-29T22:26:59.611Z,21.91
2022-07-29T22:30:03.061Z,21.88
2022-07-29T22:33:06.188Z,21.88
2022-07-29T22:36:09.429Z,21.81
2022-07-29T22:39:15.604Z,21.75
2022-07-29T22:42:21.056Z,21.72
2022-07-29T22:45:24.310Z,21.70
2022-07-29T22:48:27.376Z,21.63
2022-07-29T22:51:30.633Z,21.67
2022-07-29T22:54:34.294Z,21.63
2022-07-29T22:57:38.758Z,21.52
2022-07-29T23:00:41.854Z,21.53
2022-07-29T23:03:51.269Z,21.48
2022-07-29T23:06:54.521Z,21.40
2022-07-29T23:09:57.516Z,21.39
2022-07-29T23:13:02.639Z,21.30
2022-07-29T23:16:06.510Z,21.30
2022-07-29T23:19:09.649Z,21.25
2022-07-29T23:22:12.803Z,21.20
2022-07-29T23:25:15.910Z,21.22
2022-07-29T23:28:20.227Z,21.18
2022-07-29T23:31:23.276Z,21.16
2022-07-29T23:34:26.484Z,21.16
2022-07-29T23:37:29.549Z,21.07
2022-07-29T23:40:33.263Z,21.03
2022-07-29T23:43:37.842Z,20.96
2022-07-29T23:46:41.237Z,20.95
2022-07-29T23:49:44.495Z,20.88
2022-07-29T23:52:47.780Z,20.89
2022-07-29T23:55:50.734Z,20.86
2022-07-29T23:58:55.281Z,20.80
